sensor_id;sensor_type;location;lat;lon;timestamp;temperature;humidity
9385;DHT22;4732;49.340;10.886;2023-08-12T06:27:40;19.00;99.90
9385;DHT22;4732;49.340;10.886;2023-08-12T06:30:07;19.20;99.90
9385;DHT22;4732;49.340;10.886;2023-08-12T06:32:35;19.20;99.90
9385;DHT22;4732;49.340;10.886;2023-08-12T06:35:04;19.30;99.90
9385;DHT22;4732;49.340;10.886;2023-08-12T06:37:30;19.40;99.90
9385;DHT22;4732;49.340;10.886;2023-08-12T06:39:56;19.50;99.90
9385;DHT22;4732;49.340;10.886;2023-08-12T06:42:22;19.70;99.90
9385;DHT22;4732;49.340;10.886;2023-08-12T06:44:56;19.80;99.90
9385;DHT22;4732;49.340;10.886;2023-08-12T06:47:26;19.90;99.90
9385;DHT22;4732;49.340;10.886;2023-08-12T06:50:07;21.40;99.90
9385;DHT22;4732;49.340;10.886;2023-08-12T06:52:37;20.30;99.90
9385;DHT22;4732;49.340;10.886;2023-08-12T06:55:08;20.40;99.90
9385;DHT22;4732;49.340;10.886;2023-08-12T06:57:36;20.50;99.90
9385;DHT22;4732;49.340;10.886;2023-08-12T07:00:05;20.60;99.90
9385;DHT22;4732;49.340;10.886;2023-08-12T07:02:34;20.60;99.90
9385;DHT22;4732;49.340;10.886;2023-08-12T07:05:06;20.70;99.90
9385;DHT22;4732;49.340;10.886;2023-08-12T07:07:57;20.80;99.90
9385;DHT22;4732;49.340;10.886;2023-08-12T07:10:49;20.90;99.90
9385;DHT22;4732;49.340;10.886;2023-08-12T07:13:18;21.00;99.90
9385;DHT22;4732;49.340;10.886;2023-08-12T07:15:52;21.20;99.90
9385;DHT22;4732;49.340;10.886;2023-08-12T07:18:32;21.30;99.90
9385;DHT22;4732;49.340;10.886;2023-08-12T07:21:34;21.50;99.90
9385;DHT22;4732;49.340;10.886;2023-08-12T07:24:32;21.60;99.90
9385;DHT22;4732;49.340;10.886;2023-08-12T07:27:04;21.80;99.90
9385;DHT22;4732;49.340;10.886;2023-08-12T07:29:31;21.80;99.90
9385;DHT22;4732;49.340;10.886;2023-08-12T07:32:13;22.00;99.90
9385;DHT22;4732;49.340;10.886;2023-08-12T07:34:40;22.10;99.90
9385;DHT22;4732;49.340;10.886;2023-08-12T07:37:07;22.20;99.90
9385;DHT22;4732;49.340;10.886;2023-08-12T07:39:50;22.50;99.90
9385;DHT22;4732;49.340;10.886;2023-08-12T07:42:17;22.40;99.90
9385;DHT22;4732;49.340;10.886;2023-08-12T07:45:28;22.80;99.90
9385;DHT22;4732;49.340;10.886;2023-08-12T07:48:02;22.90;99.90
9385;DHT22;4732;49.340;10.886;2023-08-12T07:50:35;22.90;99.90
9385;DHT22;4732;49.340;10.886;2023-08-12T07:53:13;22.80;99.90
9385;DHT22;4732;49.340;10.886;2023-08-12T07:55:39;22.80;99.90
9385;DHT22;4732;49.340;10.886;2023-08-12T07:58:07;22.90;99.90
9385;DHT22;4732;49.340;10.886;2023-08-12T08:00:34;22.90;99.90
9385;DHT22;4732;49.340;10.886;2023-08-12T08:03:01;22.80;99.90
9385;DHT22;4732;49.340;10.886;2023-08-12T08:05:30;22.90;99.90
9385;DHT22;4732;49.340;10.886;2023-08-12T08:08:01;22.80;99.90
9385;DHT22;4732;49.340;10.886;2023-08-12T08:10:32;22.90;99.90
9385;DHT22;4732;49.340;10.886;2023-08-12T08:12:58;22.90;99.90
9385;DHT22;4732;49.340;10.886;2023-08-12T08:15:24;23.00;99.90
9385;DHT22;4732;49.340;10.886;2023-08-12T08:17:50;23.20;99.90
9385;DHT22;4732;49.340;10.886;2023-08-12T08:20:17;23.10;99.90
9385;DHT22;4732;49.340;10.886;2023-08-12T08:22:43;23.20;99.90
9385;DHT22;4732;49.340;10.886;2023-08-12T08:25:10;23.20;99.90
9385;DHT22;4732;49.340;10.886;2023-08-12T08:27:36;23.20;99.90
9385;DHT22;4732;49.340;10.886;2023-08-12T08:30:03;23.30;99.90
9385;DHT22;4732;49.340;10.886;2023-08-12T08:32:29;23.40;99.90
9385;DHT22;4732;49.340;10.886;2023-08-12T08:34:59;23.40;99.90
9385;DHT22;4732;49.340;10.886;2023-08-12T08:37:28;23.50;99.90
9385;DHT22;4732;49.340;10.886;2023-08-12T08:39:54;23.50;99.90
9385;DHT22;4732;49.340;10.886;2023-08-12T08:42:20;23.60;99.90
9385;DHT22;4732;49.340;10.886;2023-08-12T08:44:49;23.60;99.90
9385;DHT22;4732;49.340;10.886;2023-08-12T08:47:26;23.70;99.90
9385;DHT22;4732;49.340;10.886;2023-08-12T08:49:55;24.00;99.90
9385;DHT22;4732;49.340;10.886;2023-08-12T08:52:28;24.10;99.90
9385;DHT22;4732;49.340;10.886;2023-08-12T08:55:03;24.20;99.90
9385;DHT22;4732;49.340;10.886;2023-08-12T08:57:30;24.20;99.90
9385;DHT22;4732;49.340;10.886;2023-08-12T08:59:57;24.20;99.90
9385;DHT22;4732;49.340;10.886;2023-08-12T09:02:24;24.20;99.90
9385;DHT22;4732;49.340;10.886;2023-08-12T09:04:50;24.30;99.90
9385;DHT22;4732;49.340;10.886;2023-08-12T09:07:18;24.30;99.90
9385;DHT22;4732;49.340;10.886;2023-08-12T09:09:46;24.40;99.90
9385;DHT22;4732;49.340;10.886;2023-08-12T09:12:17;24.40;99.90
9385;DHT22;4732;49.340;10.886;2023-08-12T09:14:45;24.40;99.90
9385;DHT22;4732;49.340;10.886;2023-08-12T09:17:11;24.40;99.90
9385;DHT22;4732;49.340;10.886;2023-08-12T09:19:37;24.50;99.90
9385;DHT22;4732;49.340;10.886;2023-08-12T09:22:04;24.60;99.90
9385;DHT22;4732;49.340;10.886;2023-08-12T09:24:30;24.90;99.90
9385;DHT22;4732;49.340;10.886;2023-08-12T09:26:56;25.10;99.90
9385;DHT22;4732;49.340;10.886;2023-08-12T09:29:35;25.20;99.90
9385;DHT22;4732;49.340;10.886;2023-08-12T09:32:14;25.40;99.90
9385;DHT22;4732;49.340;10.886;2023-08-12T09:34:47;25.50;99.90
9385;DHT22;4732;49.340;10.886;2023-08-12T09:37:15;25.60;99.90
9385;DHT22;4732;49.340;10.886;2023-08-12T09:39:41;25.60;99.90
9385;DHT22;4732;49.340;10.886;2023-08-12T09:42:08;25.70;99.90
9385;DHT22;4732;49.340;10.886;2023-08-12T09:44:37;25.90;99.90
9385;DHT22;4732;49.340;10.886;2023-08-12T09:47:04;26.10;99.90
9385;DHT22;4732;49.340;10.886;2023-08-12T09:49:29;26.40;99.90
9385;DHT22;4732;49.340;10.886;2023-08-12T09:51:56;26.40;99.90
9385;DHT22;4732;49.340;10.886;2023-08-12T09:54:22;26.40;99.90
9385;DHT22;4732;49.340;10.886;2023-08-12T09:56:57;26.30;99.90
9385;DHT22;4732;49.340;10.886;2023-08-12T09:59:32;26.20;99.90
9385;DHT22;4732;49.340;10.886;2023-08-12T10:02:03;26.30;99.90
9385;DHT22;4732;49.340;10.886;2023-08-12T10:04:41;26.10;99.90
9385;DHT22;4732;49.340;10.886;2023-08-12T10:07:10;26.10;99.90
9385;DHT22;4732;49.340;10.886;2023-08-12T10:09:39;26.10;99.90
9385;DHT22;4732;49.340;10.886;2023-08-12T10:12:07;26.30;99.90
9385;DHT22;4732;49.340;10.886;2023-08-12T10:14:33;26.60;99.90
9385;DHT22;4732;49.340;10.886;2023-08-12T10:16:59;26.90;99.90
9385;DHT22;4732;49.340;10.886;2023-08-12T10:19:26;27.20;99.90
9385;DHT22;4732;49.340;10.886;2023-08-12T10:21:56;27.40;99.90
9385;DHT22;4732;49.340;10.886;2023-08-12T10:24:26;27.50;99.90
9385;DHT22;4732;49.340;10.886;2023-08-12T10:26:52;27.80;99.90
9385;DHT22;4732;49.340;10.886;2023-08-12T10:29:19;28.00;99.90
9385;DHT22;4732;49.340;10.886;2023-08-12T10:31:48;28.20;99.90
9385;DHT22;4732;49.340;10.886;2023-08-12T10:34:25;28.40;99.90
9385;DHT22;4732;49.340;10.886;2023-08-12T10:36:54;28.60;99.90
9385;DHT22;4732;49.340;10.886;2023-08-12T10:39:28;28.70;99.90
9385;DHT22;4732;49.340;10.886;2023-08-12T10:41:55;28.70;99.90
9385;DHT22;4732;49.340;10.886;2023-08-12T10:44:26;29.00;99.90
9385;DHT22;4732;49.340;10.886;2023-08-12T10:46:58;29.20;99.90
9385;DHT22;4732;49.340;10.886;2023-08-12T10:49:24;29.40;99.90
9385;DHT22;4732;49.340;10.886;2023-08-12T10:51:54;29.60;99.90
9385;DHT22;4732;49.340;10.886;2023-08-12T10:54:24;29.70;99.90
9385;DHT22;4732;49.340;10.886;2023-08-12T10:59:53;29.90;99.90
9385;DHT22;4732;49.340;10.886;2023-08-12T11:02:25;30.30;99.90
9385;DHT22;4732;49.340;10.886;2023-08-12T11:07:28;30.70;99.90
9385;DHT22;4732;49.340;10.886;2023-08-12T11:12:48;30.80;99.90
9385;DHT22;4732;49.340;10.886;2023-08-12T11:15:14;30.80;99.90
9385;DHT22;4732;49.340;10.886;2023-08-12T11:17:46;31.10;99.90
9385;DHT22;4732;49.340;10.886;2023-08-12T11:20:13;31.00;99.90
9385;DHT22;4732;49.340;10.886;2023-08-12T11:22:44;31.10;99.90
9385;DHT22;4732;49.340;10.886;2023-08-12T11:25:13;31.10;99.90
9385;DHT22;4732;49.340;10.886;2023-08-12T11:27:44;31.20;99.90
9385;DHT22;4732;49.340;10.886;2023-08-12T11:30:15;31.20;99.90
9385;DHT22;4732;49.340;10.886;2023-08-12T11:32:43;31.40;99.90
9385;DHT22;4732;49.340;10.886;2023-08-12T11:35:09;31.30;99.90
9385;DHT22;4732;49.340;10.886;2023-08-12T11:37:37;31.40;99.90
9385;DHT22;4732;49.340;10.886;2023-08-12T11:40:05;31.30;99.90
9385;DHT22;4732;49.340;10.886;2023-08-12T11:42:38;30.90;99.90
9385;DHT22;4732;49.340;10.886;2023-08-12T11:45:06;31.00;99.90
9385;DHT22;4732;49.340;10.886;2023-08-12T11:47:37;31.00;99.90
9385;DHT22;4732;49.340;10.886;2023-08-12T11:50:04;31.00;99.90
9385;DHT22;4732;49.340;10.886;2023-08-12T11:52:31;31.20;99.90
9385;DHT22;4732;49.340;10.886;2023-08-12T11:54:59;31.70;99.90
9385;DHT22;4732;49.340;10.886;2023-08-12T11:57:26;32.10;99.90
9385;DHT22;4732;49.340;10.886;2023-08-12T11:59:58;32.20;99.90
9385;DHT22;4732;49.340;10.886;2023-08-12T12:02:29;32.30;99.90
9385;DHT22;4732;49.340;10.886;2023-08-12T12:04:55;32.00;99.90
9385;DHT22;4732;49.340;10.886;2023-08-12T12:07:23;32.00;99.90
9385;DHT22;4732;49.340;10.886;2023-08-12T12:09:55;32.20;99.90
9385;DHT22;4732;49.340;10.886;2023-08-12T12:12:24;32.30;99.90
9385;DHT22;4732;49.340;10.886;2023-08-12T12:14:53;32.30;99.90
9385;DHT22;4732;49.340;10.886;2023-08-12T12:17:23;32.40;99.90
9385;DHT22;4732;49.340;10.886;2023-08-12T12:19:59;32.30;99.90
9385;DHT22;4732;49.340;10.886;2023-08-12T12:22:29;32.40;99.90
9385;DHT22;4732;49.340;10.886;2023-08-12T12:24:58;32.40;99.90
9385;DHT22;4732;49.340;10.886;2023-08-12T12:27:25;32.60;99.90
9385;DHT22;4732;49.340;10.886;2023-08-12T12:29:52;32.40;99.90
9385;DHT22;4732;49.340;10.886;2023-08-12T12:32:21;32.10;99.90
9385;DHT22;4732;49.340;10.886;2023-08-12T12:34:47;31.80;99.90
9385;DHT22;4732;49.340;10.886;2023-08-12T12:37:14;31.90;99.90
9385;DHT22;4732;49.340;10.886;2023-08-12T12:39:40;31.80;99.90
9385;DHT22;4732;49.340;10.886;2023-08-12T12:42:06;32.00;99.90
9385;DHT22;4732;49.340;10.886;2023-08-12T12:44:32;32.20;99.90
9385;DHT22;4732;49.340;10.886;2023-08-12T12:46:58;31.90;99.90
9385;DHT22;4732;49.340;10.886;2023-08-12T12:49:24;32.10;99.90
9385;DHT22;4732;49.340;10.886;2023-08-12T12:51:50;32.00;99.90
9385;DHT22;4732;49.340;10.886;2023-08-12T12:54:16;31.80;99.90
9385;DHT22;4732;49.340;10.886;2023-08-12T12:56:41;31.60;99.90
9385;DHT22;4732;49.340;10.886;2023-08-12T12:59:07;31.40;99.90
9385;DHT22;4732;49.340;10.886;2023-08-12T13:01:33;31.20;99.90
9385;DHT22;4732;49.340;10.886;2023-08-12T13:03:59;31.20;99.90
9385;DHT22;4732;49.340;10.886;2023-08-12T13:06:25;31.10;99.90
9385;DHT22;4732;49.340;10.886;2023-08-12T13:08:51;31.20;99.90
9385;DHT22;4732;49.340;10.886;2023-08-12T13:11:19;31.60;99.90
9385;DHT22;4732;49.340;10.886;2023-08-12T13:13:44;32.20;99.90
9385;DHT22;4732;49.340;10.886;2023-08-12T13:16:12;32.60;99.90
9385;DHT22;4732;49.340;10.886;2023-08-12T13:18:44;32.40;99.90
9385;DHT22;4732;49.340;10.886;2023-08-12T13:21:09;32.10;99.90
9385;DHT22;4732;49.340;10.886;2023-08-12T13:23:35;31.70;99.90
9385;DHT22;4732;49.340;10.886;2023-08-12T13:26:01;31.60;99.90
9385;DHT22;4732;49.340;10.886;2023-08-12T13:28:28;31.30;99.90
9385;DHT22;4732;49.340;10.886;2023-08-12T13:30:53;31.10;99.90
9385;DHT22;4732;49.340;10.886;2023-08-12T13:33:22;31.10;99.90
9385;DHT22;4732;49.340;10.886;2023-08-12T13:35:48;31.00;99.90
9385;DHT22;4732;49.340;10.886;2023-08-12T13:38:13;30.70;99.90
9385;DHT22;4732;49.340;10.886;2023-08-12T13:40:39;30.50;99.90
9385;DHT22;4732;49.340;10.886;2023-08-12T13:43:04;30.40;99.90
9385;DHT22;4732;49.340;10.886;2023-08-12T13:45:30;30.30;99.90
9385;DHT22;4732;49.340;10.886;2023-08-12T13:47:55;30.20;99.90
9385;DHT22;4732;49.340;10.886;2023-08-12T13:50:21;30.20;99.90
9385;DHT22;4732;49.340;10.886;2023-08-12T13:52:47;30.00;99.90
9385;DHT22;4732;49.340;10.886;2023-08-12T13:55:13;30.00;99.90
9385;DHT22;4732;49.340;10.886;2023-08-12T13:57:38;29.90;99.90
9385;DHT22;4732;49.340;10.886;2023-08-12T14:00:04;29.80;99.90
9385;DHT22;4732;49.340;10.886;2023-08-12T14:02:35;29.70;99.90
9385;DHT22;4732;49.340;10.886;2023-08-12T14:05:02;29.60;99.90
9385;DHT22;4732;49.340;10.886;2023-08-12T14:07:28;29.50;99.90
9385;DHT22;4732;49.340;10.886;2023-08-12T14:09:53;29.50;99.90
9385;DHT22;4732;49.340;10.886;2023-08-12T14:12:19;29.30;99.90
9385;DHT22;4732;49.340;10.886;2023-08-12T14:14:44;29.10;99.90
9385;DHT22;4732;49.340;10.886;2023-08-12T14:17:11;28.90;99.90
9385;DHT22;4732;49.340;10.886;2023-08-12T14:19:39;28.70;99.90
9385;DHT22;4732;49.340;10.886;2023-08-12T14:22:07;27.90;99.90
9385;DHT22;4732;49.340;10.886;2023-08-12T14:24:33;27.10;99.90
9385;DHT22;4732;49.340;10.886;2023-08-12T14:27:01;26.30;99.90
9385;DHT22;4732;49.340;10.886;2023-08-12T14:29:29;25.80;99.90
9385;DHT22;4732;49.340;10.886;2023-08-12T14:31:55;25.40;99.90
9385;DHT22;4732;49.340;10.886;2023-08-12T14:46:31;25.40;99.90
9385;DHT22;4732;49.340;10.886;2023-08-12T14:48:57;23.90;99.90
9385;DHT22;4732;49.340;10.886;2023-08-12T14:51:23;23.70;99.90
9385;DHT22;4732;49.340;10.886;2023-08-12T14:53:48;23.40;99.90
9385;DHT22;4732;49.340;10.886;2023-08-12T14:56:15;23.20;99.90
9385;DHT22;4732;49.340;10.886;2023-08-12T14:58:40;23.10;99.90
9385;DHT22;4732;49.340;10.886;2023-08-12T15:01:06;23.10;99.90
9385;DHT22;4732;49.340;10.886;2023-08-12T15:03:32;23.20;99.90
9385;DHT22;4732;49.340;10.886;2023-08-12T15:06:03;23.10;99.90
9385;DHT22;4732;49.340;10.886;2023-08-12T15:08:30;23.10;99.90
9385;DHT22;4732;49.340;10.886;2023-08-12T15:10:57;23.00;99.90
9385;DHT22;4732;49.340;10.886;2023-08-12T15:13:23;23.10;99.90
9385;DHT22;4732;49.340;10.886;2023-08-12T15:15:49;23.10;99.90
9385;DHT22;4732;49.340;10.886;2023-08-12T15:18:16;22.90;99.90
9385;DHT22;4732;49.340;10.886;2023-08-12T15:20:42;22.80;99.90
9385;DHT22;4732;49.340;10.886;2023-08-12T15:23:08;22.80;99.90
9385;DHT22;4732;49.340;10.886;2023-08-12T15:25:34;22.70;99.90
9385;DHT22;4732;49.340;10.886;2023-08-12T15:31:39;22.60;99.90
9385;DHT22;4732;49.340;10.886;2023-08-12T15:34:11;22.50;99.90
9385;DHT22;4732;49.340;10.886;2023-08-12T15:36:44;22.50;99.90
9385;DHT22;4732;49.340;10.886;2023-08-12T15:39:37;22.40;99.90
9385;DHT22;4732;49.340;10.886;2023-08-12T15:42:04;22.30;99.90
9385;DHT22;4732;49.340;10.886;2023-08-12T15:44:33;22.20;99.90
9385;DHT22;4732;49.340;10.886;2023-08-12T15:47:03;22.30;99.90
9385;DHT22;4732;49.340;10.886;2023-08-12T15:49:32;22.20;99.90
9385;DHT22;4732;49.340;10.886;2023-08-12T15:51:59;22.20;99.90
9385;DHT22;4732;49.340;10.886;2023-08-12T15:54:24;22.30;99.90
9385;DHT22;4732;49.340;10.886;2023-08-12T15:56:51;22.40;99.90
9385;DHT22;4732;49.340;10.886;2023-08-12T15:59:16;22.40;99.90
9385;DHT22;4732;49.340;10.886;2023-08-12T16:01:42;22.40;99.90
9385;DHT22;4732;49.340;10.886;2023-08-12T16:04:08;22.50;99.90
9385;DHT22;4732;49.340;10.886;2023-08-12T16:06:34;22.50;99.90
9385;DHT22;4732;49.340;10.886;2023-08-12T16:08:59;24.90;99.90
9385;DHT22;4732;49.340;10.886;2023-08-12T16:11:26;23.10;99.90
9385;DHT22;4732;49.340;10.886;2023-08-12T16:13:51;23.50;99.90
9385;DHT22;4732;49.340;10.886;2023-08-12T16:16:17;23.90;99.90
9385;DHT22;4732;49.340;10.886;2023-08-12T16:18:42;24.30;99.90
9385;DHT22;4732;49.340;10.886;2023-08-12T16:21:08;24.60;99.90
9385;DHT22;4732;49.340;10.886;2023-08-12T16:23:34;24.80;99.90
9385;DHT22;4732;49.340;10.886;2023-08-12T16:25:59;24.90;99.90
9385;DHT22;4732;49.340;10.886;2023-08-12T16:28:26;24.80;99.90
9385;DHT22;4732;49.340;10.886;2023-08-12T16:30:52;24.60;99.90
9385;DHT22;4732;49.340;10.886;2023-08-12T16:33:18;24.40;99.90
9385;DHT22;4732;49.340;10.886;2023-08-12T16:35:44;24.10;99.90
9385;DHT22;4732;49.340;10.886;2023-08-12T16:38:11;24.00;99.90
9385;DHT22;4732;49.340;10.886;2023-08-12T16:40:36;23.90;99.90
9385;DHT22;4732;49.340;10.886;2023-08-12T16:43:02;23.80;99.90
9385;DHT22;4732;49.340;10.886;2023-08-12T16:45:28;23.80;99.90
9385;DHT22;4732;49.340;10.886;2023-08-12T16:47:54;23.70;99.90
9385;DHT22;4732;49.340;10.886;2023-08-12T16:50:19;23.70;99.90
9385;DHT22;4732;49.340;10.886;2023-08-12T16:52:45;23.50;99.90
9385;DHT22;4732;49.340;10.886;2023-08-12T16:55:10;23.50;99.90
9385;DHT22;4732;49.340;10.886;2023-08-12T16:57:36;23.50;99.90
9385;DHT22;4732;49.340;10.886;2023-08-12T17:00:02;23.40;99.90
9385;DHT22;4732;49.340;10.886;2023-08-12T17:02:31;23.30;99.90
9385;DHT22;4732;49.340;10.886;2023-08-12T17:04:57;23.20;99.90
9385;DHT22;4732;49.340;10.886;2023-08-12T17:07:23;23.10;99.90
9385;DHT22;4732;49.340;10.886;2023-08-12T17:09:48;23.00;99.90
9385;DHT22;4732;49.340;10.886;2023-08-12T17:12:14;22.90;99.90
9385;DHT22;4732;49.340;10.886;2023-08-12T17:14:40;22.80;99.90
9385;DHT22;4732;49.340;10.886;2023-08-12T17:17:05;22.80;99.90
9385;DHT22;4732;49.340;10.886;2023-08-12T17:19:31;22.70;99.90
9385;DHT22;4732;49.340;10.886;2023-08-12T17:21:57;22.80;99.90
9385;DHT22;4732;49.340;10.886;2023-08-12T17:24:23;22.70;99.90
9385;DHT22;4732;49.340;10.886;2023-08-12T17:26:51;22.70;99.90
9385;DHT22;4732;49.340;10.886;2023-08-12T17:29:17;22.70;99.90
9385;DHT22;4732;49.340;10.886;2023-08-12T17:31:43;22.70;99.90
9385;DHT22;4732;49.340;10.886;2023-08-12T17:34:08;22.60;99.90
9385;DHT22;4732;49.340;10.886;2023-08-12T17:36:34;22.60;99.90
9385;DHT22;4732;49.340;10.886;2023-08-12T17:38:59;22.50;99.90
9385;DHT22;4732;49.340;10.886;2023-08-12T17:41:25;22.50;99.90
9385;DHT22;4732;49.340;10.886;2023-08-12T17:43:52;22.50;99.90
9385;DHT22;4732;49.340;10.886;2023-08-12T17:46:17;22.40;99.90
9385;DHT22;4732;49.340;10.886;2023-08-12T17:48:43;22.40;99.90
9385;DHT22;4732;49.340;10.886;2023-08-12T17:51:08;22.40;99.90
9385;DHT22;4732;49.340;10.886;2023-08-12T17:53:39;22.30;99.90
9385;DHT22;4732;49.340;10.886;2023-08-12T17:56:05;22.30;99.90
9385;DHT22;4732;49.340;10.886;2023-08-12T17:58:31;22.20;99.90
9385;DHT22;4732;49.340;10.886;2023-08-12T18:00:56;22.30;99.90
9385;DHT22;4732;49.340;10.886;2023-08-12T18:03:22;24.20;99.90
9385;DHT22;4732;49.340;10.886;2023-08-12T18:05:47;22.10;99.90
9385;DHT22;4732;49.340;10.886;2023-08-12T18:08:13;22.10;99.90
9385;DHT22;4732;49.340;10.886;2023-08-12T18:10:38;22.10;99.90
9385;DHT22;4732;49.340;10.886;2023-08-12T18:13:04;22.10;99.90
9385;DHT22;4732;49.340;10.886;2023-08-12T18:15:29;22.00;99.90
9385;DHT22;4732;49.340;10.886;2023-08-12T18:17:55;21.90;99.90
9385;DHT22;4732;49.340;10.886;2023-08-12T18:20:21;21.90;99.90
9385;DHT22;4732;49.340;10.886;2023-08-12T18:22:47;21.90;99.90
9385;DHT22;4732;49.340;10.886;2023-08-12T18:25:16;21.80;99.90
9385;DHT22;4732;49.340;10.886;2023-08-12T18:27:41;21.80;99.90
9385;DHT22;4732;49.340;10.886;2023-08-12T18:30:07;21.80;99.90
9385;DHT22;4732;49.340;10.886;2023-08-12T18:32:33;21.80;99.90
9385;DHT22;4732;49.340;10.886;2023-08-12T18:34:59;21.80;99.90
9385;DHT22;4732;49.340;10.886;2023-08-12T18:37:24;21.90;99.90
9385;DHT22;4732;49.340;10.886;2023-08-12T18:39:50;21.70;99.90
9385;DHT22;4732;49.340;10.886;2023-08-12T18:42:15;21.80;99.90
9385;DHT22;4732;49.340;10.886;2023-08-12T18:44:41;21.80;99.90
9385;DHT22;4732;49.340;10.886;2023-08-12T18:47:06;21.60;99.90
9385;DHT22;4732;49.340;10.886;2023-08-12T18:49:32;21.60;99.90
9385;DHT22;4732;49.340;10.886;2023-08-12T18:51:58;21.60;99.90
9385;DHT22;4732;49.340;10.886;2023-08-12T18:54:23;21.60;99.90
9385;DHT22;4732;49.340;10.886;2023-08-12T18:56:49;21.50;99.90
9385;DHT22;4732;49.340;10.886;2023-08-12T18:59:14;21.50;99.90
9385;DHT22;4732;49.340;10.886;2023-08-12T19:01:40;21.50;99.90
9385;DHT22;4732;49.340;10.886;2023-08-12T19:04:06;21.40;99.90
9385;DHT22;4732;49.340;10.886;2023-08-12T19:06:32;21.40;99.90
9385;DHT22;4732;49.340;10.886;2023-08-12T19:08:57;21.50;99.90
9385;DHT22;4732;49.340;10.886;2023-08-12T19:11:24;21.40;99.90
9385;DHT22;4732;49.340;10.886;2023-08-12T19:13:50;21.40;99.90
9385;DHT22;4732;49.340;10.886;2023-08-12T19:16:15;21.40;99.90
9385;DHT22;4732;49.340;10.886;2023-08-12T19:18:41;21.40;99.90
9385;DHT22;4732;49.340;10.886;2023-08-12T19:21:06;21.40;99.90
9385;DHT22;4732;49.340;10.886;2023-08-12T19:23:32;22.30;99.90
9385;DHT22;4732;49.340;10.886;2023-08-12T19:25:58;21.20;99.90
9385;DHT22;4732;49.340;10.886;2023-08-12T19:28:30;21.10;99.90
9385;DHT22;4732;49.340;10.886;2023-08-12T19:31:03;21.00;99.90
9385;DHT22;4732;49.340;10.886;2023-08-12T19:33:39;21.00;99.90
9385;DHT22;4732;49.340;10.886;2023-08-12T19:36:05;21.00;99.90
9385;DHT22;4732;49.340;10.886;2023-08-12T19:38:33;21.10;99.90
9385;DHT22;4732;49.340;10.886;2023-08-12T19:41:04;21.00;99.90
9385;DHT22;4732;49.340;10.886;2023-08-12T19:43:32;21.00;99.90
9385;DHT22;4732;49.340;10.886;2023-08-12T19:46:03;20.90;99.90
9385;DHT22;4732;49.340;10.886;2023-08-12T19:48:32;20.90;99.90
9385;DHT22;4732;49.340;10.886;2023-08-12T19:51:00;20.90;99.90
9385;DHT22;4732;49.340;10.886;2023-08-12T19:53:49;20.10;99.90
9385;DHT22;4732;49.340;10.886;2023-08-12T19:56:25;20.70;99.90
9385;DHT22;4732;49.340;10.886;2023-08-12T19:58:55;20.60;99.90
9385;DHT22;4732;49.340;10.886;2023-08-12T20:01:29;20.70;99.90
9385;DHT22;4732;49.340;10.886;2023-08-12T20:04:09;20.60;99.90
9385;DHT22;4732;49.340;10.886;2023-08-12T20:06:40;20.70;99.90
9385;DHT22;4732;49.340;10.886;2023-08-12T20:09:10;20.90;99.90
9385;DHT22;4732;49.340;10.886;2023-08-12T20:11:39;20.60;99.90
9385;DHT22;4732;49.340;10.886;2023-08-12T20:14:05;20.50;99.90
9385;DHT22;4732;49.340;10.886;2023-08-12T20:19:33;20.40;99.90
9385;DHT22;4732;49.340;10.886;2023-08-12T20:22:02;20.40;99.90
9385;DHT22;4732;49.340;10.886;2023-08-12T20:24:33;20.50;99.90
9385;DHT22;4732;49.340;10.886;2023-08-12T20:26:58;20.60;99.90
9385;DHT22;4732;49.340;10.886;2023-08-12T20:29:35;20.60;99.90
9385;DHT22;4732;49.340;10.886;2023-08-12T20:32:00;20.70;99.90
9385;DHT22;4732;49.340;10.886;2023-08-12T20:34:26;20.70;99.90
9385;DHT22;4732;49.340;10.886;2023-08-12T20:36:52;20.70;99.90
9385;DHT22;4732;49.340;10.886;2023-08-12T20:39:17;20.70;99.90
9385;DHT22;4732;49.340;10.886;2023-08-12T20:41:45;20.70;99.90
9385;DHT22;4732;49.340;10.886;2023-08-12T20:44:50;20.70;99.90
9385;DHT22;4732;49.340;10.886;2023-08-12T20:47:18;20.60;99.90
9385;DHT22;4732;49.340;10.886;2023-08-12T20:49:44;20.50;99.90
9385;DHT22;4732;49.340;10.886;2023-08-12T20:52:13;20.40;99.90
9385;DHT22;4732;49.340;10.886;2023-08-12T20:54:42;20.40;99.90
9385;DHT22;4732;49.340;10.886;2023-08-12T20:57:08;20.40;99.90
9385;DHT22;4732;49.340;10.886;2023-08-12T20:59:33;20.30;99.90
9385;DHT22;4732;49.340;10.886;2023-08-12T21:01:59;20.20;99.90
9385;DHT22;4732;49.340;10.886;2023-08-12T21:04:33;20.20;99.90
9385;DHT22;4732;49.340;10.886;2023-08-12T21:07:11;20.20;99.90
9385;DHT22;4732;49.340;10.886;2023-08-12T21:09:36;20.20;99.90
9385;DHT22;4732;49.340;10.886;2023-08-12T21:12:13;20.10;99.90
9385;DHT22;4732;49.340;10.886;2023-08-12T21:14:42;20.10;99.90
9385;DHT22;4732;49.340;10.886;2023-08-12T21:17:08;20.10;99.90
9385;DHT22;4732;49.340;10.886;2023-08-12T21:19:34;20.10;99.90
9385;DHT22;4732;49.340;10.886;2023-08-12T21:21:59;20.20;99.90
9385;DHT22;4732;49.340;10.886;2023-08-12T21:24:29;20.10;99.90
9385;DHT22;4732;49.340;10.886;2023-08-12T21:26:54;20.10;99.90
9385;DHT22;4732;49.340;10.886;2023-08-12T21:29:27;20.10;99.90
9385;DHT22;4732;49.340;10.886;2023-08-12T21:31:53;20.10;99.90
9385;DHT22;4732;49.340;10.886;2023-08-12T21:34:18;20.10;99.90
9385;DHT22;4732;49.340;10.886;2023-08-12T21:40:10;20.00;99.90
9385;DHT22;4732;49.340;10.886;2023-08-12T21:42:36;19.80;99.90
9385;DHT22;4732;49.340;10.886;2023-08-12T21:45:03;19.70;99.90
9385;DHT22;4732;49.340;10.886;2023-08-12T21:47:44;19.80;99.90
9385;DHT22;4732;49.340;10.886;2023-08-12T21:50:16;19.70;99.90
9385;DHT22;4732;49.340;10.886;2023-08-12T21:52:50;19.60;99.90
9385;DHT22;4732;49.340;10.886;2023-08-12T21:55:59;19.50;99.90
9385;DHT22;4732;49.340;10.886;2023-08-12T21:58:33;19.50;99.90
9385;DHT22;4732;49.340;10.886;2023-08-12T22:00:59;19.40;99.90
9385;DHT22;4732;49.340;10.886;2023-08-12T22:03:45;19.30;99.90
9385;DHT22;4732;49.340;10.886;2023-08-12T22:06:13;19.30;99.90
9385;DHT22;4732;49.340;10.886;2023-08-12T22:08:42;19.30;99.90
9385;DHT22;4732;49.340;10.886;2023-08-12T22:11:09;19.30;99.90
9385;DHT22;4732;49.340;10.886;2023-08-12T22:13:43;19.20;99.90
